createdAt,value
2023-01-30T00:01:07.475Z,8.31
2023-01-30T00:03:36.045Z,8.28
2023-01-30T00:06:04.318Z,8.24
2023-01-30T00:08:34.009Z,8.18
2023-01-30T00:11:05.465Z,8.15
2023-01-30T00:13:33.349Z,8.11
2023-01-30T00:16:01.678Z,8.05
2023-01-30T00:18:30.135Z,8.02
2023-01-30T00:20:59.002Z,8.04
2023-01-30T00:23:28.505Z,7.99
2023-01-30T00:25:58.407Z,7.96
2023-01-30T00:28:26.973Z,7.96
2023-01-30T00:30:56.590Z,7.98
2023-01-30T00:33:28.328Z,7.92
2023-01-30T00:35:58.035Z,7.93
2023-01-30T00:38:26.532Z,7.96
2023-01-30T00:40:54.842Z,7.97
2023-01-30T00:43:45.718Z,8.00
2023-01-30T00:46:35.832Z,8.04
2023-01-30T00:49:03.988Z,8.08
2023-01-30T00:51:32.073Z,8.11
2023-01-30T00:54:00.243Z,8.17
2023-01-30T00:56:28.479Z,8.13
2023-01-30T00:58:58.034Z,8.10
2023-01-30T01:01:26.285Z,8.10
2023-01-30T01:03:54.542Z,8.05
2023-01-30T01:06:22.676Z,8.08
2023-01-30T01:08:50.818Z,8.06
2023-01-30T01:11:24.563Z,8.05
2023-01-30T01:13:54.904Z,8.06
2023-01-30T01:16:25.469Z,8.10
2023-01-30T01:18:54.096Z,8.12
2023-01-30T01:21:23.508Z,8.12
2023-01-30T01:23:52.758Z,8.09
2023-01-30T01:26:21.506Z,8.09
2023-01-30T01:28:50.058Z,8.08
2023-01-30T01:31:18.660Z,8.12
2023-01-30T01:33:48.237Z,8.11
2023-01-30T01:36:35.710Z,8.11
2023-01-30T01:39:05.440Z,8.14
2023-01-30T01:41:32.672Z,8.13
2023-01-30T01:44:04.006Z,8.06
2023-01-30T01:46:36.075Z,8.03
2023-01-30T01:49:08.723Z,7.99
2023-01-30T01:51:40.059Z,7.92
2023-01-30T01:54:12.942Z,7.85
2023-01-30T01:56:44.732Z,7.80
2023-01-30T01:59:20.479Z,7.79
2023-01-30T02:01:51.348Z,7.77
2023-01-30T02:04:41.140Z,7.76
2023-01-30T02:07:10.813Z,7.73
2023-01-30T02:09:39.732Z,7.72
2023-01-30T02:12:08.379Z,7.67
2023-01-30T02:14:38.343Z,7.65
2023-01-30T02:17:06.801Z,7.65
2023-01-30T02:19:51.962Z,7.61
2023-01-30T02:23:00.676Z,7.60
2023-01-30T02:25:48.751Z,7.59
2023-01-30T02:28:46.869Z,7.61
2023-01-30T02:31:29.002Z,7.62
2023-01-30T02:34:09.401Z,7.67
2023-01-30T02:36:49.579Z,7.76
2023-01-30T02:39:26.633Z,7.80
2023-01-30T02:42:06.356Z,7.83
2023-01-30T02:44:42.917Z,7.85
2023-01-30T02:47:16.762Z,7.87
2023-01-30T02:49:49.982Z,7.90
2023-01-30T02:52:18.733Z,7.92
2023-01-30T02:54:46.936Z,7.93
2023-01-30T02:57:22.020Z,7.89
2023-01-30T02:59:52.703Z,7.93
2023-01-30T03:03:07.399Z,7.88
2023-01-30T03:05:57.353Z,7.90
2023-01-30T03:08:34.033Z,7.94
2023-01-30T03:11:05.522Z,7.94
2023-01-30T03:13:46.074Z,7.99
2023-01-30T03:16:17.222Z,7.97
2023-01-30T03:18:48.861Z,7.93
2023-01-30T03:21:16.707Z,7.90
2023-01-30T03:23:46.878Z,7.88
2023-01-30T03:26:19.492Z,7.92
2023-01-30T03:28:50.359Z,7.92
2023-01-30T03:31:18.878Z,7.91
2023-01-30T03:33:48.750Z,7.91
2023-01-30T03:36:17.068Z,7.91
2023-01-30T03:38:45.366Z,7.97
2023-01-30T03:41:13.744Z,7.99
2023-01-30T03:43:41.924Z,7.98
2023-01-30T03:46:10.190Z,7.97
2023-01-30T03:48:38.492Z,7.98
2023-01-30T03:51:08.139Z,8.00
2023-01-30T03:53:36.304Z,8.04
2023-01-30T03:56:04.560Z,8.02
2023-01-30T03:58:32.842Z,8.02
2023-01-30T04:01:01.238Z,8.00
2023-01-30T04:03:29.445Z,8.02
2023-01-30T04:05:57.703Z,7.97
2023-01-30T04:08:27.597Z,7.96
2023-01-30T04:10:55.758Z,8.00
2023-01-30T04:13:23.796Z,8.00
2023-01-30T04:15:51.931Z,7.96
2023-01-30T04:18:20.137Z,7.93
2023-01-30T04:20:48.306Z,7.96
2023-01-30T04:23:16.511Z,7.99
2023-01-30T04:25:48.999Z,7.97
2023-01-30T04:28:17.136Z,7.94
2023-01-30T04:30:45.311Z,7.96
2023-01-30T04:33:13.425Z,7.96
2023-01-30T04:35:41.577Z,7.90
2023-01-30T04:38:09.777Z,7.92
2023-01-30T04:40:37.928Z,7.86
2023-01-30T04:43:07.480Z,7.79
2023-01-30T04:45:35.608Z,7.76
2023-01-30T04:48:03.763Z,7.73
2023-01-30T04:50:31.933Z,7.72
2023-01-30T04:53:00.144Z,7.69
2023-01-30T04:55:28.517Z,7.69
2023-01-30T04:57:56.757Z,7.72
2023-01-30T05:00:27.187Z,7.71
2023-01-30T05:02:56.249Z,7.71
2023-01-30T05:05:25.122Z,7.69
2023-01-30T05:07:53.668Z,7.73
2023-01-30T05:10:22.448Z,7.73
2023-01-30T05:12:50.615Z,7.71
2023-01-30T05:15:19.359Z,7.67
2023-01-30T05:17:49.093Z,7.65
2023-01-30T05:20:17.459Z,7.64
2023-01-30T05:22:45.905Z,7.62
2023-01-30T05:25:13.986Z,7.61
2023-01-30T05:27:42.240Z,7.60
2023-01-30T05:30:11.707Z,7.61
2023-01-30T05:32:39.845Z,7.59
2023-01-30T05:35:10.119Z,7.59
2023-01-30T05:37:38.988Z,7.58
2023-01-30T05:40:09.044Z,7.60
2023-01-30T05:42:37.209Z,7.63
2023-01-30T05:45:05.947Z,7.64
2023-01-30T05:47:34.222Z,7.61
2023-01-30T05:50:02.519Z,7.60
2023-01-30T05:52:32.793Z,7.57
2023-01-30T05:55:00.983Z,7.53
2023-01-30T05:57:29.164Z,7.51
2023-01-30T05:59:57.323Z,7.49
2023-01-30T06:02:25.475Z,7.43
2023-01-30T06:04:53.730Z,7.40
2023-01-30T06:07:21.840Z,7.38
2023-01-30T06:09:51.343Z,7.34
2023-01-30T06:12:19.496Z,7.30
2023-01-30T06:14:47.775Z,7.32
2023-01-30T06:17:15.996Z,7.36
2023-01-30T06:19:44.157Z,7.35
2023-01-30T06:22:12.263Z,7.39
2023-01-30T06:24:40.516Z,7.35
2023-01-30T06:27:10.159Z,7.27
2023-01-30T06:29:38.386Z,7.24
2023-01-30T06:32:06.909Z,7.24
2023-01-30T06:34:35.182Z,7.21
2023-01-30T06:37:03.459Z,7.20
2023-01-30T06:39:31.909Z,7.16
2023-01-30T06:41:59.986Z,7.23
2023-01-30T06:44:29.428Z,7.20
2023-01-30T06:46:57.623Z,7.19
2023-01-30T06:49:26.134Z,7.16
2023-01-30T06:51:54.387Z,7.15
2023-01-30T06:54:22.637Z,7.15
2023-01-30T06:56:50.793Z,7.13
2023-01-30T06:59:19.008Z,7.13
2023-01-30T07:01:48.604Z,7.11
2023-01-30T07:04:16.786Z,7.08
2023-01-30T07:06:46.273Z,7.05
2023-01-30T07:09:14.473Z,7.05
2023-01-30T07:11:42.674Z,7.06
2023-01-30T07:14:11.011Z,7.03
2023-01-30T07:16:39.207Z,7.01
2023-01-30T07:19:08.806Z,6.99
2023-01-30T07:21:36.871Z,6.98
2023-01-30T07:24:05.318Z,6.98
2023-01-30T07:26:33.650Z,6.95
2023-01-30T07:29:01.918Z,6.94
2023-01-30T07:31:30.063Z,6.90
2023-01-30T07:33:58.313Z,6.90
2023-01-30T07:36:27.790Z,6.89
2023-01-30T07:38:55.925Z,6.89
2023-01-30T07:41:24.092Z,6.89
2023-01-30T07:43:52.303Z,6.89
2023-01-30T07:46:20.510Z,6.88
2023-01-30T07:48:48.764Z,6.88
2023-01-30T07:51:16.878Z,6.87
2023-01-30T07:53:46.329Z,6.87
2023-01-30T07:56:18.785Z,6.89
2023-01-30T07:58:46.980Z,6.90
2023-01-30T08:01:15.363Z,6.93
2023-01-30T08:03:43.955Z,6.95
2023-01-30T08:06:12.577Z,6.98
2023-01-30T08:08:40.770Z,7.00
2023-01-30T08:11:10.593Z,7.04
2023-01-30T08:13:38.683Z,7.07
2023-01-30T08:16:08.481Z,7.10
2023-01-30T08:18:36.765Z,7.09
2023-01-30T08:21:06.875Z,7.13
2023-01-30T08:23:37.778Z,7.15
2023-01-30T08:26:07.438Z,7.16
2023-01-30T08:28:36.946Z,7.20
2023-01-30T08:31:10.096Z,7.21
2023-01-30T08:33:38.307Z,7.25
2023-01-30T08:36:07.219Z,7.25
2023-01-30T08:38:35.471Z,7.27
2023-01-30T08:41:06.773Z,7.30
2023-01-30T08:43:36.845Z,7.31
2023-01-30T08:46:07.894Z,7.33
2023-01-30T08:48:49.185Z,7.35
2023-01-30T08:51:18.586Z,7.40
2023-01-30T08:53:46.786Z,7.41
2023-01-30T08:56:14.891Z,7.42
2023-01-30T08:58:46.761Z,7.47
2023-01-30T09:01:15.049Z,7.51
2023-01-30T09:03:43.252Z,7.52
2023-01-30T09:06:11.488Z,7.52
2023-01-30T09:08:39.692Z,7.53
2023-01-30T09:11:08.154Z,7.58
2023-01-30T09:13:36.815Z,7.60
2023-01-30T09:16:07.992Z,7.61
2023-01-30T09:18:39.108Z,7.61
2023-01-30T09:21:07.764Z,7.59
2023-01-30T09:23:36.120Z,7.59
2023-01-30T09:26:04.633Z,7.59
2023-01-30T09:28:33.411Z,7.59
2023-01-30T09:31:03.294Z,7.55
2023-01-30T09:33:33.217Z,7.52
2023-01-30T09:36:01.835Z,7.52
2023-01-30T09:38:29.894Z,7.49
2023-01-30T09:41:14.992Z,7.51
2023-01-30T09:44:02.968Z,7.51
2023-01-30T09:46:42.167Z,7.50
2023-01-30T09:49:26.355Z,7.52
2023-01-30T09:52:04.611Z,7.55
2023-01-30T09:54:36.613Z,7.58
2023-01-30T09:57:21.415Z,7.62
2023-01-30T10:00:01.010Z,7.59
2023-01-30T10:02:40.468Z,7.60
2023-01-30T10:05:10.848Z,7.60
2023-01-30T10:07:57.330Z,7.61
2023-01-30T10:10:39.307Z,7.59
2023-01-30T10:13:20.434Z,7.59
2023-01-30T10:15:54.958Z,7.63
2023-01-30T10:18:42.447Z,7.63
2023-01-30T10:21:25.967Z,7.63
2023-01-30T10:24:20.495Z,7.66
2023-01-30T10:26:49.666Z,7.67
2023-01-30T10:29:23.332Z,7.69
2023-01-30T10:31:55.607Z,7.66
2023-01-30T10:34:29.489Z,7.68
2023-01-30T10:37:05.608Z,7.70
2023-01-30T10:39:54.354Z,7.73
2023-01-30T10:42:29.491Z,7.68
2023-01-30T10:45:04.533Z,7.74
2023-01-30T10:47:47.378Z,7.74
2023-01-30T10:50:19.686Z,7.79
2023-01-30T10:52:57.008Z,7.81
2023-01-30T10:55:37.622Z,7.90
2023-01-30T10:58:16.583Z,7.94
2023-01-30T11:00:51.633Z,7.95
2023-01-30T11:03:27.542Z,7.96
2023-01-30T11:06:01.076Z,7.98
2023-01-30T11:08:33.251Z,8.08
2023-01-30T11:11:01.981Z,8.13
2023-01-30T11:13:32.104Z,8.16
2023-01-30T11:16:04.077Z,8.19
2023-01-30T11:19:17.779Z,8.23
2023-01-30T11:21:32.047Z,8.29
2023-01-30T11:24:19.480Z,8.30
2023-01-30T11:26:49.036Z,8.33
2023-01-30T11:29:29.534Z,8.39
2023-01-30T11:32:02.372Z,8.44
2023-01-30T11:34:30.802Z,8.48
2023-01-30T11:37:18.780Z,8.58
2023-01-30T11:39:53.416Z,8.59
2023-01-30T11:42:25.890Z,8.64
2023-01-30T11:45:10.736Z,8.64
2023-01-30T11:47:57.857Z,8.60
2023-01-30T11:50:37.013Z,8.64
2023-01-30T11:53:23.186Z,8.60
2023-01-30T11:56:03.740Z,8.59
2023-01-30T11:58:36.066Z,8.60
2023-01-30T12:01:05.443Z,8.59
2023-01-30T12:03:34.622Z,8.60
2023-01-30T12:06:02.826Z,8.61
2023-01-30T12:08:42.202Z,8.59
2023-01-30T12:11:28.472Z,8.60
2023-01-30T12:14:06.018Z,8.65
2023-01-30T12:16:48.163Z,8.59
2023-01-30T12:19:29.440Z,8.60
2023-01-30T12:22:05.440Z,8.58
2023-01-30T12:24:41.555Z,8.61
2023-01-30T12:27:18.749Z,8.72
2023-01-30T12:29:56.906Z,8.80
2023-01-30T12:32:28.708Z,8.73
2023-01-30T12:34:56.875Z,8.77
2023-01-30T12:37:43.296Z,8.75
2023-01-30T12:40:22.972Z,8.84
2023-01-30T12:43:28.540Z,9.00
2023-01-30T12:46:05.807Z,9.13
2023-01-30T12:49:11.055Z,9.24
2023-01-30T12:51:54.598Z,9.28
2023-01-30T12:54:36.023Z,9.33
2023-01-30T12:57:19.775Z,9.34
2023-01-30T13:00:01.423Z,9.34
2023-01-30T13:02:37.620Z,9.41
2023-01-30T13:05:21.433Z,9.44
2023-01-30T13:08:04.340Z,9.49
2023-01-30T13:10:41.152Z,9.49
2023-01-30T13:13:19.266Z,9.53
2023-01-30T13:15:58.239Z,9.56
2023-01-30T13:18:31.407Z,9.60
2023-01-30T13:21:08.625Z,9.69
2023-01-30T13:23:49.891Z,9.68
2023-01-30T13:26:22.448Z,9.66
2023-01-30T13:28:54.328Z,9.66
2023-01-30T13:31:27.180Z,9.64
2023-01-30T13:34:08.737Z,9.59
2023-01-30T13:36:44.290Z,9.54
2023-01-30T13:41:56.586Z,9.54
2023-01-30T13:44:30.960Z,9.56
2023-01-30T13:47:08.773Z,9.58
2023-01-30T13:49:45.993Z,9.57
2023-01-30T13:52:24.619Z,9.62
2023-01-30T13:55:02.666Z,9.63
2023-01-30T13:57:43.969Z,9.63
2023-01-30T14:00:33.536Z,9.65
2023-01-30T14:03:26.840Z,9.67
2023-01-30T14:06:23.940Z,9.71
2023-01-30T14:08:59.194Z,9.73
2023-01-30T14:11:48.152Z,9.79
2023-01-30T14:14:27.992Z,9.87
2023-01-30T14:16:58.062Z,9.89
2023-01-30T14:19:36.677Z,9.90
2023-01-30T14:22:19.230Z,9.91
2023-01-30T14:25:25.715Z,9.93
2023-01-30T14:27:55.802Z,9.91
2023-01-30T14:30:38.757Z,9.90
2023-01-30T14:33:48.854Z,9.91
2023-01-30T14:36:38.778Z,9.94
2023-01-30T14:39:40.614Z,9.89
2023-01-30T14:42:21.712Z,9.88
2023-01-30T14:45:03.704Z,9.83
2023-01-30T14:47:37.662Z,9.80
2023-01-30T14:50:20.911Z,9.80
2023-01-30T14:52:55.751Z,9.73
2023-01-30T14:55:29.563Z,9.74
2023-01-30T14:58:01.328Z,9.68
2023-01-30T15:00:32.573Z,9.66
2023-01-30T15:03:03.667Z,9.65
2023-01-30T15:05:39.011Z,9.68
2023-01-30T15:08:13.751Z,9.70
2023-01-30T15:10:55.574Z,9.72
2023-01-30T15:13:46.528Z,9.69
2023-01-30T15:16:43.507Z,9.72
2023-01-30T15:19:31.457Z,9.70
2023-01-30T15:22:11.939Z,9.72
2023-01-30T15:25:12.285Z,9.64
2023-01-30T15:27:55.067Z,9.59
2023-01-30T15:30:34.970Z,9.62
2023-01-30T15:33:22.933Z,9.56
2023-01-30T15:35:57.870Z,9.54
2023-01-30T15:38:29.738Z,9.56
2023-01-30T15:41:02.249Z,9.54
2023-01-30T15:44:01.270Z,9.49
2023-01-30T15:46:41.248Z,9.50
2023-01-30T15:49:27.983Z,9.50
2023-01-30T15:51:56.205Z,9.48
2023-01-30T15:54:25.360Z,9.50
2023-01-30T15:56:54.006Z,9.43
2023-01-30T15:59:32.560Z,9.40
2023-01-30T16:02:03.970Z,9.39
2023-01-30T16:04:32.581Z,9.40
2023-01-30T16:07:01.086Z,9.40
2023-01-30T16:09:29.260Z,9.36
2023-01-30T16:11:57.329Z,9.31
2023-01-30T16:14:27.052Z,9.32
2023-01-30T16:17:00.790Z,9.32
2023-01-30T16:19:31.916Z,9.29
2023-01-30T16:22:02.628Z,9.30
2023-01-30T16:24:33.209Z,9.28
2023-01-30T16:27:04.497Z,9.30
2023-01-30T16:29:39.508Z,9.27
2023-01-30T16:32:14.410Z,9.23
2023-01-30T16:34:42.866Z,9.21
2023-01-30T16:37:27.438Z,9.16
2023-01-30T16:40:06.125Z,9.15
2023-01-30T16:42:34.326Z,9.13
2023-01-30T16:45:43.278Z,9.13
2023-01-30T16:48:31.323Z,9.12
2023-01-30T16:51:15.934Z,9.10
2023-01-30T16:53:51.316Z,9.07
2023-01-30T16:56:20.495Z,9.09
2023-01-30T16:58:52.876Z,9.08
2023-01-30T17:01:24.247Z,9.09
2023-01-30T17:04:00.727Z,9.11
2023-01-30T17:06:34.872Z,9.07
2023-01-30T17:09:05.079Z,9.08
2023-01-30T17:11:36.079Z,9.09
2023-01-30T17:14:23.111Z,9.04
2023-01-30T17:17:03.778Z,9.03
2023-01-30T17:19:41.776Z,8.99
2023-01-30T17:22:20.771Z,8.99
2023-01-30T17:24:48.949Z,8.96
2023-01-30T17:27:17.845Z,8.93
2023-01-30T17:29:47.399Z,8.95
2023-01-30T17:32:17.135Z,8.98
2023-01-30T17:34:46.676Z,8.96
2023-01-30T17:37:17.255Z,8.97
2023-01-30T17:39:46.050Z,8.96
2023-01-30T17:42:21.179Z,8.94
2023-01-30T17:44:49.353Z,8.94
2023-01-30T17:47:17.642Z,8.91
2023-01-30T17:49:47.133Z,8.93
2023-01-30T17:52:15.267Z,8.88
2023-01-30T17:54:43.487Z,8.85
2023-01-30T17:57:15.777Z,8.81
2023-01-30T17:59:44.097Z,8.85
2023-01-30T18:02:12.146Z,8.84
2023-01-30T18:04:40.819Z,8.84
2023-01-30T18:07:14.784Z,8.86
2023-01-30T18:09:43.229Z,8.85
2023-01-30T18:12:11.407Z,8.87
2023-01-30T18:14:39.568Z,8.84
2023-01-30T18:17:08.185Z,8.82
2023-01-30T18:19:36.345Z,8.82
2023-01-30T18:22:04.557Z,8.80
2023-01-30T18:24:34.599Z,8.81
2023-01-30T18:27:02.961Z,8.79
2023-01-30T18:29:31.262Z,8.78
2023-01-30T18:32:05.150Z,8.78
2023-01-30T18:34:33.933Z,8.77
2023-01-30T18:37:02.134Z,8.79
2023-01-30T18:39:32.068Z,8.82
2023-01-30T18:42:03.125Z,8.82
2023-01-30T18:44:31.767Z,8.81
2023-01-30T18:46:59.942Z,8.83
2023-01-30T18:49:28.175Z,8.85
2023-01-30T18:51:56.654Z,8.88
2023-01-30T18:54:24.885Z,8.90
2023-01-30T18:56:53.126Z,8.90
2023-01-30T18:59:23.079Z,8.93
2023-01-30T19:01:51.213Z,8.93
2023-01-30T19:04:19.467Z,8.96
2023-01-30T19:06:47.641Z,8.99
2023-01-30T19:09:18.149Z,8.99
2023-01-30T19:12:03.696Z,9.01
2023-01-30T19:14:33.222Z,8.99
2023-01-30T19:17:01.350Z,8.98
2023-01-30T19:19:29.841Z,8.96
2023-01-30T19:21:57.984Z,8.94
2023-01-30T19:24:26.049Z,8.91
2023-01-30T19:26:54.321Z,8.87
2023-01-30T19:29:22.606Z,8.84
2023-01-30T19:31:52.252Z,8.81
2023-01-30T19:34:20.570Z,8.80
2023-01-30T19:36:48.821Z,8.77
2023-01-30T19:39:17.053Z,8.80
2023-01-30T19:41:45.220Z,8.82
2023-01-30T19:44:13.613Z,8.80
2023-01-30T19:46:41.925Z,8.79
2023-01-30T19:49:12.783Z,8.83
2023-01-30T19:51:41.851Z,8.85
2023-01-30T19:54:12.936Z,8.82
2023-01-30T19:56:42.739Z,8.80
2023-01-30T19:59:13.838Z,8.77
2023-01-30T20:01:42.154Z,8.78
2023-01-30T20:04:10.357Z,8.78
2023-01-30T20:06:43.364Z,8.76
2023-01-30T20:09:12.314Z,8.75
2023-01-30T20:11:42.414Z,8.76
2023-01-30T20:14:12.456Z,8.76
2023-01-30T20:16:41.300Z,8.79
2023-01-30T20:19:13.564Z,8.80
2023-01-30T20:21:43.647Z,8.79
2023-01-30T20:24:12.855Z,8.84
2023-01-30T20:26:41.560Z,8.84
2023-01-30T20:29:11.713Z,8.86
2023-01-30T20:31:40.101Z,8.89
2023-01-30T20:34:11.886Z,8.89
2023-01-30T20:36:40.175Z,8.89
2023-01-30T20:39:09.740Z,8.93
2023-01-30T20:41:38.747Z,8.94
2023-01-30T20:44:09.169Z,8.95
2023-01-30T20:46:41.508Z,8.95
2023-01-30T20:49:14.182Z,9.00
2023-01-30T20:51:42.772Z,8.99
2023-01-30T20:54:14.415Z,9.00
2023-01-30T20:56:44.302Z,9.02
2023-01-30T20:59:15.049Z,9.03
2023-01-30T21:01:44.136Z,9.04
2023-01-30T21:04:14.582Z,9.06
2023-01-30T21:06:46.132Z,9.06
2023-01-30T21:09:18.335Z,9.07
2023-01-30T21:11:46.366Z,9.06
2023-01-30T21:14:14.926Z,9.05
2023-01-30T21:16:43.401Z,9.03
2023-01-30T21:19:16.056Z,8.98
2023-01-30T21:21:50.613Z,9.00
2023-01-30T21:24:24.406Z,8.99
2023-01-30T21:26:52.927Z,8.99
2023-01-30T21:29:23.594Z,9.07
2023-01-30T21:31:52.523Z,9.12
2023-01-30T21:34:20.870Z,9.13
2023-01-30T21:37:10.010Z,9.17
2023-01-30T21:40:08.652Z,9.20
2023-01-30T21:42:54.047Z,9.20
2023-01-30T21:45:22.695Z,9.24
2023-01-30T21:47:54.329Z,9.19
2023-01-30T21:50:22.397Z,9.18
2023-01-30T21:52:50.856Z,9.15
2023-01-30T21:55:20.848Z,9.14
2023-01-30T21:57:49.245Z,9.13
2023-01-30T22:00:17.634Z,9.13
2023-01-30T22:02:45.867Z,9.14
2023-01-30T22:05:13.962Z,9.16
2023-01-30T22:07:42.176Z,9.14
2023-01-30T22:10:11.556Z,9.14
2023-01-30T22:12:41.730Z,9.18
2023-01-30T22:15:10.767Z,9.19
2023-01-30T22:17:39.016Z,9.21
2023-01-30T22:20:10.079Z,9.23
2023-01-30T22:22:38.657Z,9.17
2023-01-30T22:25:08.091Z,9.18
2023-01-30T22:27:36.241Z,9.18
2023-01-30T22:30:06.591Z,9.16
2023-01-30T22:32:34.794Z,9.14
2023-01-30T22:35:03.067Z,9.13
2023-01-30T22:37:31.361Z,9.14
2023-01-30T22:39:59.539Z,9.16
2023-01-30T22:42:27.797Z,9.18
2023-01-30T22:44:55.914Z,9.19
2023-01-30T22:47:25.815Z,9.16
2023-01-30T22:49:53.904Z,9.15
2023-01-30T22:52:22.064Z,9.13
2023-01-30T22:54:50.371Z,9.09
2023-01-30T22:57:18.632Z,9.06
2023-01-30T22:59:46.774Z,9.07
2023-01-30T23:02:15.263Z,9.08
2023-01-30T23:04:44.856Z,9.04
2023-01-30T23:07:16.309Z,9.06
2023-01-30T23:09:44.227Z,9.01
2023-01-30T23:12:29.491Z,9.06
2023-01-30T23:14:57.601Z,9.10
2023-01-30T23:17:43.447Z,9.13
2023-01-30T23:20:13.743Z,9.14
2023-01-30T23:22:41.989Z,9.16
2023-01-30T23:25:11.177Z,9.20
2023-01-30T23:27:39.383Z,9.23
2023-01-30T23:30:08.733Z,9.26
2023-01-30T23:32:36.797Z,9.26
2023-01-30T23:35:05.152Z,9.27
2023-01-30T23:37:48.459Z,9.24
2023-01-30T23:40:16.992Z,9.26
2023-01-30T23:42:45.405Z,9.27
2023-01-30T23:45:13.662Z,9.28
2023-01-30T23:47:41.895Z,9.23
2023-01-30T23:50:11.539Z,9.25
2023-01-30T23:52:41.038Z,9.29
2023-01-30T23:55:09.983Z,9.32
2023-01-30T23:57:38.502Z,9.32
